createdAt,value
2023-04-02T00:00:25.972Z,22.95
2023-04-02T00:01:37.060Z,24.83
2023-04-02T00:02:48.152Z,21.13
2023-04-02T00:04:15.675Z,22.02
2023-04-02T00:05:44.099Z,22.30
2023-04-02T00:06:47.775Z,20.52
2023-04-02T00:07:53.723Z,22.25
2023-04-02T00:08:58.561Z,19.92
2023-04-02T00:10:02.212Z,20.80
2023-04-02T00:11:07.146Z,21.77
2023-04-02T00:12:18.720Z,23.38
2023-04-02T00:13:30.362Z,21.83
2023-04-02T00:14:35.105Z,23.95
2023-04-02T00:15:39.318Z,22.25
2023-04-02T00:16:43.484Z,23.27
2023-04-02T00:17:47.187Z,22.42
2023-04-02T00:18:55.346Z,20.75
2023-04-02T00:20:01.226Z,23.15
2023-04-02T00:21:20.188Z,20.95
2023-04-02T00:22:29.962Z,22.20
2023-04-02T00:23:33.688Z,20.70
2023-04-02T00:24:39.986Z,22.50
2023-04-02T00:25:45.572Z,21.98
2023-04-02T00:26:51.215Z,23.95
2023-04-02T00:27:56.876Z,23.53
2023-04-02T00:29:12.130Z,21.50
2023-04-02T00:30:17.258Z,22.02
2023-04-02T00:31:21.673Z,22.65
2023-04-02T00:32:28.063Z,21.75
2023-04-02T00:33:33.982Z,21.57
2023-04-02T00:34:41.344Z,22.73
2023-04-02T00:35:45.061Z,19.70
2023-04-02T00:36:49.658Z,18.80
2023-04-02T00:37:53.666Z,23.23
2023-04-02T00:38:59.911Z,20.50
2023-04-02T00:40:08.023Z,20.42
2023-04-02T00:41:17.042Z,23.77
2023-04-02T00:42:21.567Z,21.55
2023-04-02T00:43:28.717Z,21.00
2023-04-02T00:44:33.381Z,21.83
2023-04-02T00:45:39.270Z,23.27
2023-04-02T00:46:45.446Z,24.63
2023-04-02T00:47:49.191Z,22.70
2023-04-02T00:48:58.457Z,22.40
2023-04-02T00:50:07.294Z,22.07
2023-04-02T00:51:18.806Z,22.65
2023-04-02T00:52:27.012Z,21.13
2023-04-02T00:53:31.801Z,22.17
2023-04-02T00:54:43.122Z,20.45
2023-04-02T00:55:47.136Z,22.37
2023-04-02T00:56:54.450Z,23.02
2023-04-02T00:58:00.387Z,22.38
2023-04-02T00:59:05.997Z,21.98
2023-04-02T01:00:21.304Z,23.60
2023-04-02T01:01:27.315Z,23.60
2023-04-02T01:02:34.291Z,21.90
2023-04-02T01:03:38.221Z,24.80
2023-04-02T01:04:42.787Z,25.75
2023-04-02T01:05:48.457Z,23.00
2023-04-02T01:06:52.195Z,21.37
2023-04-02T01:08:09.642Z,22.88
2023-04-02T01:09:28.693Z,22.92
2023-04-02T01:10:52.768Z,24.50
2023-04-02T01:12:11.221Z,26.60
2023-04-02T01:13:26.308Z,25.13
2023-04-02T01:14:45.557Z,24.05
2023-04-02T01:15:57.205Z,24.50
2023-04-02T01:17:10.887Z,22.35
2023-04-02T01:18:43.343Z,24.02
2023-04-02T01:20:19.418Z,22.87
2023-04-02T01:21:54.683Z,22.77
2023-04-02T01:23:05.286Z,22.65
2023-04-02T01:24:11.718Z,22.65
2023-04-02T01:25:20.027Z,22.98
2023-04-02T01:26:35.507Z,21.97
2023-04-02T01:27:44.599Z,23.30
2023-04-02T01:29:06.400Z,23.38
2023-04-02T01:30:11.929Z,22.17
2023-04-02T01:31:16.931Z,23.98
2023-04-02T01:32:24.166Z,22.63
2023-04-02T01:33:31.894Z,21.30
2023-04-02T01:34:36.780Z,23.48
2023-04-02T01:35:45.620Z,22.80
2023-04-02T01:37:03.097Z,26.38
2023-04-02T01:38:14.414Z,24.83
2023-04-02T01:39:32.444Z,22.95
2023-04-02T01:40:40.578Z,23.17
2023-04-02T01:41:52.352Z,23.77
2023-04-02T01:43:05.165Z,23.90
2023-04-02T01:44:14.830Z,24.70
2023-04-02T01:45:21.203Z,23.95
2023-04-02T01:46:30.302Z,23.55
2023-04-02T01:47:34.367Z,24.10
2023-04-02T01:48:41.085Z,23.77
2023-04-02T01:49:45.660Z,22.47
2023-04-02T01:50:52.506Z,26.98
2023-04-02T01:51:57.018Z,24.05
2023-04-02T01:53:03.136Z,25.35
2023-04-02T01:54:07.171Z,23.27
2023-04-02T01:55:13.151Z,25.00
2023-04-02T01:56:17.426Z,21.60
2023-04-02T01:57:21.178Z,22.23
2023-04-02T01:58:27.110Z,23.42
2023-04-02T01:59:32.758Z,24.05
2023-04-02T02:00:38.831Z,23.87
2023-04-02T02:01:46.713Z,25.02
2023-04-02T02:02:52.466Z,22.95
2023-04-02T02:03:56.354Z,24.15
2023-04-02T02:05:00.109Z,22.55
2023-04-02T02:06:06.513Z,24.00
2023-04-02T02:07:17.146Z,24.65
2023-04-02T02:08:32.579Z,24.27
2023-04-02T02:09:37.103Z,24.65
2023-04-02T02:10:40.922Z,25.10
2023-04-02T02:11:44.617Z,24.57
2023-04-02T02:12:48.808Z,27.40
2023-04-02T02:13:55.849Z,23.50
2023-04-02T02:15:01.104Z,26.20
2023-04-02T02:16:05.986Z,23.48
2023-04-02T02:17:14.899Z,27.93
2023-04-02T02:18:22.348Z,25.33
2023-04-02T02:19:29.929Z,25.20
2023-04-02T02:20:35.080Z,26.75
2023-04-02T02:21:40.999Z,27.35
2023-04-02T02:22:47.131Z,23.60
2023-04-02T02:23:52.980Z,25.45
2023-04-02T02:24:58.345Z,27.02
2023-04-02T02:26:01.989Z,25.10
2023-04-02T02:27:37.497Z,28.77
2023-04-02T02:28:43.616Z,26.30
2023-04-02T02:29:50.310Z,23.65
2023-04-02T02:30:58.871Z,26.13
2023-04-02T02:32:04.527Z,25.80
2023-04-02T02:33:15.415Z,27.08
2023-04-02T02:34:25.903Z,25.37
2023-04-02T02:35:35.011Z,26.40
2023-04-02T02:36:48.082Z,23.83
2023-04-02T02:37:58.207Z,24.77
2023-04-02T02:39:06.194Z,24.08
2023-04-02T02:40:16.835Z,23.97
2023-04-02T02:41:26.675Z,25.52
2023-04-02T02:42:36.266Z,24.55
2023-04-02T02:43:44.524Z,24.13
2023-04-02T02:44:50.712Z,24.92
2023-04-02T02:45:58.370Z,25.60
2023-04-02T02:47:04.456Z,25.10
2023-04-02T02:48:14.524Z,28.63
2023-04-02T02:49:22.108Z,25.58
2023-04-02T02:50:29.502Z,24.90
2023-04-02T02:51:44.949Z,25.03
2023-04-02T02:52:53.694Z,25.92
2023-04-02T02:54:03.852Z,25.50
2023-04-02T02:55:10.900Z,28.17
2023-04-02T02:56:15.246Z,28.27
2023-04-02T02:57:22.451Z,27.57
2023-04-02T02:58:29.058Z,28.23
2023-04-02T02:59:33.139Z,26.48
2023-04-02T03:00:38.299Z,25.67
2023-04-02T03:01:45.250Z,27.10
2023-04-02T03:02:49.636Z,26.47
2023-04-02T03:03:55.660Z,28.00
2023-04-02T03:04:59.489Z,26.60
2023-04-02T03:06:06.406Z,26.02
2023-04-02T03:07:10.406Z,27.60
2023-04-02T03:08:22.053Z,28.97
2023-04-02T03:09:38.001Z,31.58
2023-04-02T03:10:48.494Z,27.70
2023-04-02T03:11:58.004Z,27.38
2023-04-02T03:13:08.865Z,29.17
2023-04-02T03:14:21.071Z,29.03
2023-04-02T03:15:34.059Z,26.92
2023-04-02T03:16:42.241Z,27.15
2023-04-02T03:17:52.261Z,32.10
2023-04-02T03:18:59.848Z,29.88
2023-04-02T03:20:11.578Z,27.40
2023-04-02T03:21:26.750Z,30.90
2023-04-02T03:22:36.386Z,29.73
2023-04-02T03:23:44.563Z,29.40
2023-04-02T03:24:56.410Z,32.88
2023-04-02T03:26:05.162Z,28.47
2023-04-02T03:27:16.119Z,28.27
2023-04-02T03:28:24.329Z,28.40
2023-04-02T03:29:30.966Z,27.38
2023-04-02T03:30:41.152Z,27.50
2023-04-02T03:31:48.753Z,27.33
2023-04-02T03:33:00.147Z,27.35
2023-04-02T03:34:10.447Z,25.42
2023-04-02T03:35:23.206Z,25.83
2023-04-02T03:36:31.571Z,26.70
2023-04-02T03:37:43.558Z,26.30
2023-04-02T03:38:51.369Z,28.33
2023-04-02T03:40:00.322Z,29.23
2023-04-02T03:41:14.401Z,25.92
2023-04-02T03:42:22.503Z,29.55
2023-04-02T03:43:27.918Z,27.47
2023-04-02T03:44:36.045Z,28.20
2023-04-02T03:45:42.818Z,26.27
2023-04-02T03:46:50.010Z,29.88
2023-04-02T03:48:01.663Z,26.02
2023-04-02T03:49:10.533Z,28.47
2023-04-02T03:50:20.979Z,25.17
2023-04-02T03:51:28.452Z,25.40
2023-04-02T03:52:35.885Z,25.13
2023-04-02T03:53:39.965Z,25.80
2023-04-02T03:54:54.066Z,25.37
2023-04-02T03:55:59.473Z,26.67
2023-04-02T03:57:03.637Z,24.67
2023-04-02T03:58:14.698Z,25.83
2023-04-02T03:59:27.603Z,25.40
2023-04-02T04:00:38.337Z,27.13
2023-04-02T04:01:48.795Z,26.58
2023-04-02T04:02:57.642Z,27.52
2023-04-02T04:04:08.713Z,25.90
2023-04-02T04:05:23.900Z,27.00
2023-04-02T04:06:29.851Z,31.40
2023-04-02T04:07:40.232Z,28.63
2023-04-02T04:08:48.050Z,26.90
2023-04-02T04:09:54.241Z,26.83
2023-04-02T04:11:02.628Z,24.20
2023-04-02T04:12:15.699Z,25.63
2023-04-02T04:13:26.702Z,26.55
2023-04-02T04:14:33.667Z,24.30
2023-04-02T04:15:42.995Z,26.20
2023-04-02T04:16:52.237Z,26.17
2023-04-02T04:18:03.736Z,27.97
2023-04-02T04:19:16.271Z,27.48
2023-04-02T04:20:24.839Z,26.15
2023-04-02T04:21:29.621Z,26.42
2023-04-02T04:22:33.345Z,22.75
2023-04-02T04:23:39.250Z,27.40
2023-04-02T04:24:42.931Z,27.65
2023-04-02T04:25:46.638Z,22.85
2023-04-02T04:26:56.323Z,24.52
2023-04-02T04:28:08.518Z,25.77
2023-04-02T04:29:26.899Z,23.30
2023-04-02T04:30:35.534Z,22.92
2023-04-02T04:31:44.379Z,22.52
2023-04-02T04:32:51.116Z,24.02
2023-04-02T04:33:59.527Z,24.40
2023-04-02T04:35:08.537Z,24.80
2023-04-02T04:36:22.640Z,26.92
2023-04-02T04:37:29.467Z,23.20
2023-04-02T04:38:35.748Z,25.73
2023-04-02T04:39:45.618Z,23.08
2023-04-02T04:40:52.198Z,22.47
2023-04-02T04:41:58.103Z,25.45
2023-04-02T04:43:06.997Z,23.25
2023-04-02T04:44:20.173Z,21.38
2023-04-02T04:45:40.433Z,21.73
2023-04-02T04:46:48.044Z,26.70
2023-04-02T04:47:56.685Z,25.85
2023-04-02T04:49:09.325Z,24.08
2023-04-02T04:50:18.770Z,24.00
2023-04-02T04:51:26.207Z,25.45
2023-04-02T04:52:34.299Z,26.87
2023-04-02T04:53:48.353Z,24.63
2023-04-02T04:54:52.236Z,23.67
2023-04-02T04:56:06.019Z,24.60
2023-04-02T04:57:30.186Z,25.17
2023-04-02T04:58:37.239Z,24.23
2023-04-02T04:59:45.237Z,23.88
2023-04-02T05:00:57.306Z,24.40
2023-04-02T05:02:06.177Z,25.13
2023-04-02T05:03:18.304Z,22.35
2023-04-02T05:04:27.412Z,25.37
2023-04-02T05:05:34.798Z,26.23
2023-04-02T05:06:43.363Z,22.65
2023-04-02T05:07:51.711Z,22.23
2023-04-02T05:09:00.176Z,25.23
2023-04-02T05:10:12.223Z,24.07
2023-04-02T05:11:24.539Z,21.80
2023-04-02T05:12:34.449Z,25.27
2023-04-02T05:13:45.028Z,25.00
2023-04-02T05:14:54.561Z,23.70
2023-04-02T05:16:08.301Z,21.10
2023-04-02T05:17:17.839Z,24.27
2023-04-02T05:18:27.229Z,22.05
2023-04-02T05:19:39.760Z,22.25
2023-04-02T05:20:48.555Z,22.63
2023-04-02T05:21:56.269Z,24.33
2023-04-02T05:23:05.496Z,21.77
2023-04-02T05:24:34.112Z,23.60
2023-04-02T05:25:38.858Z,24.40
2023-04-02T05:26:46.454Z,22.27
2023-04-02T05:27:54.124Z,24.33
2023-04-02T05:29:03.470Z,22.83
2023-04-02T05:30:15.766Z,20.95
2023-04-02T05:31:24.508Z,22.40
2023-04-02T05:32:32.342Z,25.55
2023-04-02T05:33:37.470Z,24.97
2023-04-02T05:34:46.307Z,24.23
2023-04-02T05:35:55.051Z,24.95
2023-04-02T05:36:59.125Z,22.40
2023-04-02T05:38:03.750Z,22.60
2023-04-02T05:39:10.903Z,22.37
2023-04-02T05:40:20.114Z,22.83
2023-04-02T05:41:27.944Z,25.20
2023-04-02T05:42:37.058Z,24.52
2023-04-02T05:43:46.424Z,23.73
2023-04-02T05:45:02.472Z,21.83
2023-04-02T05:46:16.270Z,21.85
2023-04-02T05:47:24.605Z,24.83
2023-04-02T05:48:33.066Z,23.15
2023-04-02T05:49:45.382Z,23.40
2023-04-02T05:50:52.038Z,26.13
2023-04-02T05:51:59.676Z,23.98
2023-04-02T05:53:11.523Z,26.30
2023-04-02T05:54:23.501Z,28.25
2023-04-02T05:55:42.181Z,24.80
2023-04-02T05:56:49.868Z,27.17
2023-04-02T05:58:21.317Z,25.77
2023-04-02T05:59:27.961Z,21.83
2023-04-02T06:00:48.511Z,21.52
2023-04-02T06:01:57.857Z,26.65
2023-04-02T06:03:07.178Z,24.93
2023-04-02T06:04:20.593Z,26.15
2023-04-02T06:05:29.527Z,26.38
2023-04-02T06:06:49.707Z,24.10
2023-04-02T06:07:58.699Z,23.98
2023-04-02T06:09:12.339Z,25.73
2023-04-02T06:10:20.747Z,23.98
2023-04-02T06:11:29.349Z,22.73
2023-04-02T06:12:40.018Z,22.30
2023-04-02T06:13:43.741Z,22.48
2023-04-02T06:14:47.592Z,24.43
2023-04-02T06:15:51.398Z,23.65
2023-04-02T06:16:55.263Z,22.15
2023-04-02T06:18:09.655Z,27.45
2023-04-02T06:19:23.234Z,24.27
2023-04-02T06:20:28.858Z,26.97
2023-04-02T06:21:33.274Z,24.15
2023-04-02T06:22:39.838Z,24.45
2023-04-02T06:23:48.068Z,22.98
2023-04-02T06:24:58.589Z,24.98
2023-04-02T06:26:05.525Z,23.87
2023-04-02T06:27:15.704Z,25.45
2023-04-02T06:28:25.272Z,28.95
2023-04-02T06:29:33.955Z,23.95
2023-04-02T06:30:41.934Z,25.08
2023-04-02T06:31:49.566Z,24.60
2023-04-02T06:32:53.345Z,25.33
2023-04-02T06:33:57.887Z,24.00
2023-04-02T06:35:01.593Z,23.83
2023-04-02T06:36:09.962Z,25.35
2023-04-02T06:37:22.063Z,21.73
2023-04-02T06:38:30.556Z,23.95
2023-04-02T06:39:34.273Z,22.73
2023-04-02T06:40:43.276Z,22.83
2023-04-02T06:41:47.174Z,26.65
2023-04-02T06:42:52.702Z,26.60
2023-04-02T06:43:59.067Z,22.58
2023-04-02T06:45:03.224Z,24.77
2023-04-02T06:46:16.258Z,24.35
2023-04-02T06:47:28.008Z,23.05
2023-04-02T06:48:34.102Z,24.07
2023-04-02T06:49:43.233Z,27.33
2023-04-02T06:50:51.959Z,24.73
2023-04-02T06:51:59.431Z,27.67
2023-04-02T06:53:05.889Z,24.98
2023-04-02T06:54:15.527Z,25.23
2023-04-02T06:55:39.976Z,24.60
2023-04-02T06:56:46.917Z,23.88
2023-04-02T06:57:50.568Z,30.67
2023-04-02T06:58:54.278Z,25.73
2023-04-02T06:59:57.878Z,23.17
2023-04-02T07:01:01.584Z,26.55
2023-04-02T07:02:16.506Z,24.52
2023-04-02T07:03:25.226Z,25.42
2023-04-02T07:04:28.974Z,24.23
2023-04-02T07:05:32.899Z,24.97
2023-04-02T07:06:36.718Z,27.85
2023-04-02T07:07:42.097Z,24.35
2023-04-02T07:08:45.839Z,24.58
2023-04-02T07:09:49.447Z,27.33
2023-04-02T07:10:53.064Z,24.83
2023-04-02T07:11:56.712Z,27.02
2023-04-02T07:13:00.430Z,25.35
2023-04-02T07:14:04.320Z,28.20
2023-04-02T07:15:08.762Z,25.15
2023-04-02T07:16:17.016Z,25.57
2023-04-02T07:17:21.550Z,24.73
2023-04-02T07:18:28.453Z,26.10
2023-04-02T07:19:32.185Z,22.45
2023-04-02T07:20:36.781Z,24.42
2023-04-02T07:21:40.374Z,28.10
2023-04-02T07:22:45.686Z,24.17
2023-04-02T07:23:49.384Z,25.27
2023-04-02T07:24:53.265Z,25.00
2023-04-02T07:25:57.776Z,27.33
2023-04-02T07:27:01.443Z,25.10
2023-04-02T07:28:06.367Z,24.98
2023-04-02T07:29:14.954Z,26.92
2023-04-02T07:30:18.977Z,27.88
2023-04-02T07:31:25.013Z,23.70
2023-04-02T07:32:28.752Z,23.87
2023-04-02T07:33:32.584Z,25.60
2023-04-02T07:34:36.287Z,23.85
2023-04-02T07:35:39.965Z,24.98
2023-04-02T07:36:43.725Z,26.90
2023-04-02T07:37:48.983Z,25.30
2023-04-02T07:38:52.948Z,23.88
2023-04-02T07:39:56.681Z,27.65
2023-04-02T07:41:06.616Z,25.73
2023-04-02T07:42:10.687Z,24.88
2023-04-02T07:43:14.352Z,23.40
2023-04-02T07:44:17.978Z,25.38
2023-04-02T07:45:21.642Z,26.23
2023-04-02T07:46:30.914Z,26.70
2023-04-02T07:47:34.590Z,25.75
2023-04-02T07:48:38.281Z,26.00
2023-04-02T07:49:41.932Z,27.38
2023-04-02T07:50:45.492Z,24.30
2023-04-02T07:51:49.211Z,22.92
2023-04-02T07:52:54.520Z,25.23
2023-04-02T07:53:58.136Z,26.07
2023-04-02T07:55:01.931Z,22.38
2023-04-02T07:56:06.963Z,24.10
2023-04-02T07:57:10.615Z,32.13
2023-04-02T07:58:16.996Z,22.60
2023-04-02T07:59:20.606Z,24.83
2023-04-02T08:00:24.554Z,24.67
2023-04-02T08:01:29.201Z,27.25
2023-04-02T08:02:33.993Z,24.52
2023-04-02T08:03:37.858Z,25.90
2023-04-02T08:04:41.538Z,22.53
2023-04-02T08:05:50.075Z,25.10
2023-04-02T08:06:53.754Z,25.65
2023-04-02T08:07:59.088Z,24.42
2023-04-02T08:09:02.738Z,25.38
2023-04-02T08:10:07.242Z,23.97
2023-04-02T08:11:11.424Z,24.08
2023-04-02T08:12:15.535Z,24.42
2023-04-02T08:13:19.958Z,23.88
2023-04-02T08:14:23.564Z,23.58
2023-04-02T08:15:27.238Z,22.80
2023-04-02T08:16:45.122Z,21.90
2023-04-02T08:17:48.876Z,25.17
2023-04-02T08:18:52.822Z,20.60
2023-04-02T08:19:56.570Z,23.80
2023-04-02T08:21:00.839Z,23.87
2023-04-02T08:22:04.555Z,24.85
2023-04-02T08:23:14.899Z,22.13
2023-04-02T08:24:18.698Z,25.48
2023-04-02T08:25:22.283Z,21.83
2023-04-02T08:26:25.878Z,21.77
2023-04-02T08:27:29.462Z,22.35
2023-04-02T08:28:33.168Z,23.52
2023-04-02T08:29:36.788Z,26.83
2023-04-02T08:30:40.672Z,23.98
2023-04-02T08:31:44.327Z,24.80
2023-04-02T08:32:48.270Z,20.25
2023-04-02T08:33:51.976Z,22.02
2023-04-02T08:34:55.652Z,21.85
2023-04-02T08:35:59.484Z,23.23
2023-04-02T08:37:03.191Z,20.93
2023-04-02T08:38:07.036Z,20.42
2023-04-02T08:39:12.444Z,20.77
2023-04-02T08:40:24.446Z,22.35
2023-04-02T08:41:28.706Z,20.48
2023-04-02T08:42:39.853Z,20.33
2023-04-02T08:44:10.839Z,22.52
2023-04-02T08:45:25.454Z,22.20
2023-04-02T08:46:38.256Z,20.73
2023-04-02T08:47:43.678Z,19.50
2023-04-02T08:48:55.195Z,19.83
2023-04-02T08:50:02.429Z,23.88
2023-04-02T08:51:07.978Z,20.33
2023-04-02T08:52:22.959Z,21.15
2023-04-02T08:53:31.692Z,23.20
2023-04-02T08:54:38.187Z,20.20
2023-04-02T08:55:46.379Z,25.60
2023-04-02T08:56:56.296Z,21.77
2023-04-02T08:58:07.033Z,19.77
2023-04-02T08:59:21.934Z,21.27
2023-04-02T09:00:37.456Z,20.87
2023-04-02T09:01:49.776Z,20.75
2023-04-02T09:02:58.119Z,19.33
2023-04-02T09:04:03.238Z,20.55
2023-04-02T09:05:15.969Z,20.95
2023-04-02T09:06:21.883Z,21.63
2023-04-02T09:07:26.581Z,21.23
2023-04-02T09:08:32.199Z,20.00
2023-04-02T09:09:39.493Z,20.55
2023-04-02T09:10:49.840Z,19.58
2023-04-02T09:11:56.062Z,20.43
2023-04-02T09:13:00.728Z,20.77
2023-04-02T09:14:10.858Z,20.58
2023-04-02T09:15:31.821Z,21.95
2023-04-02T09:16:45.545Z,20.63
2023-04-02T09:17:53.961Z,22.40
2023-04-02T09:18:58.253Z,18.65
2023-04-02T09:20:08.373Z,19.58
2023-04-02T09:21:32.838Z,20.65
2023-04-02T09:22:36.533Z,21.58
2023-04-02T09:23:40.160Z,20.23
2023-04-02T09:24:45.507Z,19.70
2023-04-02T09:26:01.345Z,18.88
2023-04-02T09:27:19.183Z,21.20
2023-04-02T09:28:22.898Z,20.50
2023-04-02T09:29:50.333Z,20.30
2023-04-02T09:31:06.877Z,19.13
2023-04-02T09:32:40.377Z,20.00
2023-04-02T09:33:45.696Z,19.90
2023-04-02T09:34:49.354Z,19.90
2023-04-02T09:35:57.779Z,17.93
2023-04-02T09:37:10.077Z,17.70
2023-04-02T09:38:20.461Z,17.10
2023-04-02T09:39:25.773Z,18.40
2023-04-02T09:40:41.182Z,19.42
2023-04-02T09:41:48.177Z,18.00
2023-04-02T09:43:11.776Z,16.80
2023-04-02T09:44:21.360Z,19.98
2023-04-02T09:45:25.778Z,18.77
2023-04-02T09:46:29.492Z,18.90
2023-04-02T09:47:33.627Z,18.20
2023-04-02T09:48:39.705Z,17.20
2023-04-02T09:49:43.314Z,18.83
2023-04-02T09:50:46.904Z,18.30
2023-04-02T09:52:19.118Z,19.08
2023-04-02T09:53:31.094Z,19.20
2023-04-02T09:54:34.880Z,19.48
2023-04-02T09:55:40.421Z,17.92
2023-04-02T09:57:01.540Z,18.35
2023-04-02T09:58:14.578Z,17.67
2023-04-02T09:59:20.667Z,19.10
2023-04-02T10:00:41.805Z,16.50
2023-04-02T10:01:47.366Z,18.05
2023-04-02T10:03:04.022Z,18.38
2023-04-02T10:04:28.579Z,20.48
2023-04-02T10:06:51.349Z,18.67
2023-04-02T10:08:06.038Z,19.23
2023-04-02T10:09:31.198Z,18.88
2023-04-02T10:10:41.554Z,16.50
2023-04-02T10:11:46.701Z,17.87
2023-04-02T10:12:55.713Z,16.83
2023-04-02T10:14:02.047Z,17.40
2023-04-02T10:15:07.005Z,20.50
2023-04-02T10:16:14.718Z,18.25
2023-04-02T10:17:24.141Z,16.77
2023-04-02T10:18:41.184Z,18.70
2023-04-02T10:19:49.204Z,17.33
2023-04-02T10:20:55.196Z,18.95
2023-04-02T10:22:01.910Z,18.27
2023-04-02T10:23:06.524Z,18.90
2023-04-02T10:24:14.284Z,18.80
2023-04-02T10:25:20.344Z,17.92
2023-04-02T10:26:49.227Z,20.13
2023-04-02T10:27:59.605Z,17.88
2023-04-02T10:29:28.375Z,16.30
2023-04-02T10:30:39.457Z,16.50
2023-04-02T10:31:56.537Z,16.98
2023-04-02T10:33:04.152Z,18.40
2023-04-02T10:34:17.680Z,16.30
2023-04-02T10:35:33.585Z,17.13
2023-04-02T10:36:49.032Z,17.25
2023-04-02T10:38:18.832Z,16.33
2023-04-02T10:39:26.933Z,18.25
2023-04-02T10:40:37.415Z,19.15
2023-04-02T10:41:52.281Z,17.57
2023-04-02T10:43:10.861Z,16.92
2023-04-02T10:44:41.038Z,17.88
2023-04-02T10:45:49.662Z,17.10
2023-04-02T10:47:08.975Z,18.17
2023-04-02T10:48:22.659Z,17.33
2023-04-02T10:49:34.404Z,16.98
2023-04-02T10:50:46.851Z,19.67
2023-04-02T10:51:59.253Z,16.52
2023-04-02T10:53:11.828Z,17.23
2023-04-02T10:54:31.943Z,18.07
2023-04-02T10:55:38.097Z,16.98
2023-04-02T10:56:50.491Z,16.75
2023-04-02T10:58:01.118Z,19.10
2023-04-02T10:59:12.739Z,17.38
2023-04-02T11:00:23.298Z,18.13
2023-04-02T11:01:29.502Z,18.83
2023-04-02T11:02:39.354Z,19.33
2023-04-02T11:03:47.605Z,22.05
2023-04-02T11:04:55.411Z,19.45
2023-04-02T11:06:03.408Z,18.27
2023-04-02T11:07:14.383Z,18.73
2023-04-02T11:08:23.442Z,17.35
2023-04-02T11:09:32.327Z,18.92
2023-04-02T11:10:40.294Z,17.67
2023-04-02T11:11:47.506Z,20.40
2023-04-02T11:12:57.034Z,19.73
2023-04-02T11:14:04.298Z,18.45
2023-04-02T11:15:16.849Z,21.10
2023-04-02T11:16:20.871Z,17.80
2023-04-02T11:17:25.417Z,19.17
2023-04-02T11:18:30.793Z,17.23
2023-04-02T11:19:35.249Z,18.33
2023-04-02T11:20:58.257Z,18.25
2023-04-02T11:22:06.652Z,19.30
2023-04-02T11:23:12.965Z,17.00
2023-04-02T11:24:40.819Z,17.27
2023-04-02T11:25:45.951Z,21.38
2023-04-02T11:26:49.773Z,16.48
2023-04-02T11:27:55.254Z,17.20
2023-04-02T11:29:25.180Z,18.43
2023-04-02T11:30:29.356Z,18.88
2023-04-02T11:31:33.613Z,17.48
2023-04-02T11:32:39.711Z,17.52
2023-04-02T11:33:46.057Z,17.67
2023-04-02T11:35:19.252Z,18.33
2023-04-02T11:37:00.060Z,17.08
2023-04-02T11:38:24.151Z,19.27
2023-04-02T11:39:49.780Z,17.65
2023-04-02T11:40:54.070Z,19.08
2023-04-02T11:42:07.216Z,17.83
2023-04-02T11:43:57.759Z,18.73
2023-04-02T11:45:56.272Z,17.27
2023-04-02T11:47:19.121Z,19.83
2023-04-02T11:48:31.441Z,17.98
2023-04-02T11:49:40.413Z,20.33
2023-04-02T11:50:45.536Z,18.92
2023-04-02T11:51:54.371Z,21.33
2023-04-02T11:53:20.182Z,17.13
2023-04-02T11:54:26.985Z,22.15
2023-04-02T11:55:32.481Z,19.77
2023-04-02T11:56:42.610Z,20.50
2023-04-02T11:57:56.665Z,17.50
2023-04-02T11:59:10.936Z,20.00
2023-04-02T12:00:32.601Z,17.27
2023-04-02T12:01:51.313Z,19.40
2023-04-02T12:03:13.893Z,17.98
2023-04-02T12:04:51.935Z,17.70
2023-04-02T12:06:03.751Z,21.50
2023-04-02T12:07:47.463Z,19.20
2023-04-02T12:09:01.691Z,20.07
2023-04-02T12:10:17.104Z,20.65
2023-04-02T12:11:34.218Z,19.25
2023-04-02T12:12:39.814Z,20.13
2023-04-02T12:13:54.608Z,19.30
2023-04-02T12:14:59.306Z,18.13
2023-04-02T12:16:04.955Z,18.77
2023-04-02T12:17:21.066Z,21.42
2023-04-02T12:18:25.884Z,17.63
2023-04-02T12:19:31.205Z,18.17
2023-04-02T12:20:35.788Z,19.70
2023-04-02T12:21:46.798Z,20.17
2023-04-02T12:22:52.758Z,20.38
2023-04-02T12:24:02.860Z,18.25
2023-04-02T12:25:20.222Z,19.13
2023-04-02T12:26:30.827Z,17.17
2023-04-02T12:27:34.516Z,19.58
2023-04-02T12:28:38.244Z,18.50
2023-04-02T12:29:42.297Z,18.15
2023-04-02T12:30:46.649Z,17.85
2023-04-02T12:31:52.768Z,19.53
2023-04-02T12:32:56.414Z,18.35
2023-04-02T12:34:00.157Z,20.85
2023-04-02T12:35:05.681Z,19.77
2023-04-02T12:36:21.158Z,19.20
2023-04-02T12:37:26.619Z,18.77
2023-04-02T12:38:31.566Z,19.08
2023-04-02T12:39:35.856Z,20.70
2023-04-02T12:40:39.503Z,19.77
2023-04-02T12:41:43.147Z,17.88
2023-04-02T12:42:46.817Z,18.50
2023-04-02T12:43:58.318Z,19.55
2023-04-02T12:45:02.363Z,18.48
2023-04-02T12:46:09.015Z,18.73
2023-04-02T12:47:14.991Z,17.35
2023-04-02T12:48:19.052Z,21.43
2023-04-02T12:49:32.067Z,18.95
2023-04-02T12:50:36.153Z,20.85
2023-04-02T12:51:40.429Z,18.98
2023-04-02T12:53:02.082Z,19.05
2023-04-02T12:54:06.456Z,17.63
2023-04-02T12:55:23.353Z,20.23
2023-04-02T12:56:26.936Z,16.80
2023-04-02T12:57:38.940Z,20.73
2023-04-02T12:58:43.625Z,19.15
2023-04-02T12:59:47.294Z,17.93
2023-04-02T13:00:50.915Z,16.20
2023-04-02T13:01:58.812Z,18.00
2023-04-02T13:03:18.595Z,20.50
2023-04-02T13:04:22.449Z,19.33
2023-04-02T13:05:38.245Z,19.43
2023-04-02T13:06:48.367Z,18.02
2023-04-02T13:07:52.027Z,17.40
2023-04-02T13:08:56.189Z,20.00
2023-04-02T13:10:01.525Z,19.27
2023-04-02T13:11:07.089Z,21.83
2023-04-02T13:12:26.237Z,22.15
2023-04-02T13:13:33.663Z,19.52
2023-04-02T13:14:38.228Z,19.50
2023-04-02T13:15:42.427Z,18.48
2023-04-02T13:16:46.338Z,21.60
2023-04-02T13:18:03.431Z,18.73
2023-04-02T13:19:23.675Z,19.13
2023-04-02T13:20:32.212Z,17.33
2023-04-02T13:21:36.284Z,22.20
2023-04-02T13:22:39.902Z,18.37
2023-04-02T13:23:44.016Z,19.70
2023-04-02T13:24:47.679Z,20.20
2023-04-02T13:25:51.962Z,20.50
2023-04-02T13:26:58.279Z,17.08
2023-04-02T13:28:02.638Z,18.53
2023-04-02T13:29:21.446Z,20.05
2023-04-02T13:30:26.778Z,17.75
2023-04-02T13:31:31.296Z,21.77
2023-04-02T13:32:34.956Z,20.27
2023-04-02T13:33:38.760Z,18.53
2023-04-02T13:34:44.021Z,20.10
2023-04-02T13:35:47.693Z,19.40
2023-04-02T13:36:51.372Z,20.73
2023-04-02T13:37:55.102Z,19.35
2023-04-02T13:38:58.975Z,17.77
2023-04-02T13:40:04.244Z,19.27
2023-04-02T13:41:11.842Z,17.60
2023-04-02T13:42:15.546Z,19.98
2023-04-02T13:43:20.799Z,20.00
2023-04-02T13:44:26.119Z,19.00
2023-04-02T13:45:32.001Z,19.10
2023-04-02T13:46:36.313Z,21.02
2023-04-02T13:47:41.220Z,20.48
2023-04-02T13:48:45.121Z,19.98
2023-04-02T13:49:50.469Z,21.13
2023-04-02T13:50:54.366Z,20.00
2023-04-02T13:52:00.237Z,18.85
2023-04-02T13:53:10.234Z,18.52
2023-04-02T13:54:21.153Z,23.00
2023-04-02T13:55:27.896Z,19.93
2023-04-02T13:56:31.650Z,17.77
2023-04-02T13:57:35.557Z,19.20
2023-04-02T13:58:39.459Z,18.58
2023-04-02T13:59:43.103Z,17.63
2023-04-02T14:00:47.914Z,20.03
2023-04-02T14:01:54.584Z,18.05
2023-04-02T14:03:07.148Z,17.60
2023-04-02T14:04:13.808Z,20.05
2023-04-02T14:05:32.410Z,19.48
2023-04-02T14:07:07.132Z,22.63
2023-04-02T14:08:16.305Z,20.02
2023-04-02T14:09:28.016Z,21.23
2023-04-02T14:10:45.336Z,20.55
2023-04-02T14:11:56.647Z,21.00
2023-04-02T14:13:17.191Z,18.70
2023-04-02T14:14:35.161Z,18.92
2023-04-02T14:15:51.166Z,20.75
2023-04-02T14:17:08.595Z,20.30
2023-04-02T14:18:29.221Z,19.83
2023-04-02T14:19:54.137Z,21.50
2023-04-02T14:21:09.156Z,20.58
2023-04-02T14:22:22.362Z,19.73
2023-04-02T14:23:45.756Z,21.38
2023-04-02T14:24:57.938Z,20.25
2023-04-02T14:26:13.677Z,19.33
2023-04-02T14:27:27.948Z,21.38
2023-04-02T14:28:41.879Z,18.83
2023-04-02T14:29:52.389Z,18.02
2023-04-02T14:31:04.253Z,18.52
2023-04-02T14:32:11.430Z,20.43
2023-04-02T14:33:25.477Z,22.20
2023-04-02T14:34:37.007Z,19.38
2023-04-02T14:35:54.507Z,20.00
2023-04-02T14:37:13.682Z,21.23
2023-04-02T14:38:25.723Z,19.33
2023-04-02T14:39:38.744Z,21.13
2023-04-02T14:40:48.409Z,20.02
2023-04-02T14:41:57.624Z,20.33
2023-04-02T14:43:05.660Z,20.60
2023-04-02T14:44:12.211Z,19.87
2023-04-02T14:45:25.749Z,18.92
2023-04-02T14:46:31.485Z,20.58
2023-04-02T14:47:40.347Z,19.52
2023-04-02T14:48:49.328Z,19.30
2023-04-02T14:49:56.712Z,20.70
2023-04-02T14:51:04.596Z,18.90
2023-04-02T14:52:14.942Z,21.92
2023-04-02T14:53:26.272Z,22.13
2023-04-02T14:54:35.292Z,22.35